Time;durP1;ratioP1;P1;durP2;ratioP2;P2;SDS_P1;SDS_P2;PMS_P1;PMS_P2;Temp;Humidity;BMP_temperature;BMP_pressure;BME280_temperature;BME280_humidity;BME280_pressure;Samples;Min_cycle;Max_cycle;Signal;HPM_P1;HPM_P2
2021/08/01 00:01:24;;;;;;;6.68;6.07;;;;;;;;;;3586127;40;20036;-58
2021/08/01 00:03:51;;;;;;;6.90;6.30;;;;;;;;;;3585947;40;20044;-58
2021/08/01 00:06:17;;;;;;;5.10;4.60;;;;;;;;;;3586327;40;20280;-58
2021/08/01 00:08:42;;;;;;;9.90;5.07;;;;;;;;;;3585274;40;20044;-59
2021/08/01 00:11:08;;;;;;;8.32;5.20;;;;;;;;;;3585950;40;20043;-58
2021/08/01 00:13:33;;;;;;;6.57;5.97;;;;;;;;;;3585233;40;20386;-58
2021/08/01 00:16:00;;;;;;;12.43;11.15;;;;;;;;;;3585271;40;20044;-58
2021/08/01 00:18:26;;;;;;;8.65;7.90;;;;;;;;;;3586015;40;20084;-58
2021/08/01 00:20:51;;;;;;;13.43;12.43;;;;;;;;;;3585352;40;20033;-58
2021/08/01 00:23:17;;;;;;;7.63;6.80;;;;;;;;;;3585725;40;20041;-58
2021/08/01 00:25:42;;;;;;;9.20;8.48;;;;;;;;;;3585978;40;20052;-58
2021/08/01 00:28:07;;;;;;;7.25;6.55;;;;;;;;;;3586212;40;20288;-58
2021/08/01 00:30:33;;;;;;;6.68;5.80;;;;;;;;;;3585504;40;20053;-58
2021/08/01 00:32:59;;;;;;;8.02;7.07;;;;;;;;;;3584177;40;20053;-58
2021/08/01 00:35:25;;;;;;;7.28;6.60;;;;;;;;;;3585529;40;20384;-58
2021/08/01 00:37:50;;;;;;;11.52;6.88;;;;;;;;;;3585877;40;20033;-58
2021/08/01 00:40:17;;;;;;;7.50;6.00;;;;;;;;;;3585909;40;20068;-58
2021/08/01 00:42:42;;;;;;;7.13;6.43;;;;;;;;;;3585133;40;20410;-58
2021/08/01 00:45:08;;;;;;;11.85;10.90;;;;;;;;;;3585734;40;20072;-58
2021/08/01 00:47:35;;;;;;;8.13;7.43;;;;;;;;;;3586034;40;20368;-58
2021/08/01 00:50:05;;;;;;;7.00;6.40;;;;;;;;;;3585942;40;20060;-58
2021/08/01 00:52:31;;;;;;;11.32;9.73;;;;;;;;;;3586431;40;20036;-58
2021/08/01 00:54:56;;;;;;;10.60;9.05;;;;;;;;;;3587439;40;20028;-59
2021/08/01 00:57:22;;;;;;;9.80;7.95;;;;;;;;;;3586817;40;20129;-59
2021/08/01 00:59:47;;;;;;;12.40;8.38;;;;;;;;;;3587407;40;20040;-59
2021/08/01 01:02:17;;;;;;;13.77;12.70;;;;;;;;;;3586794;40;20299;-59
2021/08/01 01:04:57;;;;;;;13.38;12.23;;;;;;;;;;3585982;40;20045;-59
2021/08/01 01:07:38;;;;;;;11.00;10.13;;;;;;;;;;3585387;40;20040;-59
2021/08/01 01:10:08;;;;;;;8.70;7.38;;;;;;;;;;3587102;40;20122;-59
2021/08/01 01:12:39;;;;;;;6.70;5.95;;;;;;;;;;3586886;40;20036;-59
2021/08/01 01:15:11;;;;;;;7.20;4.60;;;;;;;;;;3585693;40;20279;-59
2021/08/01 01:17:39;;;;;;;6.15;5.53;;;;;;;;;;3585712;40;20048;-59
2021/08/01 01:20:07;;;;;;;8.20;5.72;;;;;;;;;;3584776;40;20051;-59
2021/08/01 01:22:41;;;;;;;5.82;5.32;;;;;;;;;;3585936;40;20364;-59
2021/08/01 01:25:35;;;;;;;6.07;4.90;;;;;;;;;;3587106;40;20049;-59
2021/08/01 01:28:15;;;;;;;7.25;5.53;;;;;;;;;;3584176;40;20121;-59
2021/08/01 01:30:48;;;;;;;4.37;3.47;;;;;;;;;;3586617;40;20048;-59
2021/08/01 01:33:17;;;;;;;5.45;4.22;;;;;;;;;;3585218;40;20283;-59
2021/08/01 01:35:48;;;;;;;9.20;4.80;;;;;;;;;;3583787;40;20033;-59
2021/08/01 01:38:14;;;;;;;6.00;4.47;;;;;;;;;;3585868;40;20440;-59
2021/08/01 01:40:41;;;;;;;6.38;5.65;;;;;;;;;;3586737;40;20136;-59
2021/08/01 01:43:07;;;;;;;5.80;5.10;;;;;;;;;;3586543;40;20040;-59
2021/08/01 01:45:35;;;;;;;6.20;5.50;;;;;;;;;;3586559;40;20040;-59
2021/08/01 01:48:01;;;;;;;6.28;5.65;;;;;;;;;;3587205;40;20490;-59
2021/08/01 01:50:28;;;;;;;7.05;5.85;;;;;;;;;;3586511;40;20052;-59
2021/08/01 01:52:55;;;;;;;4.65;3.85;;;;;;;;;;3587617;40;20110;-59
2021/08/01 01:55:23;;;;;;;6.20;3.67;;;;;;;;;;3586053;40;20375;-59
2021/08/01 01:57:49;;;;;;;5.70;4.60;;;;;;;;;;3587123;40;20134;-59
2021/08/01 02:00:15;;;;;;;5.53;3.92;;;;;;;;;;3586339;40;20377;-59
2021/08/01 02:02:40;;;;;;;5.00;4.50;;;;;;;;;;3582367;40;20126;-59
2021/08/01 02:05:07;;;;;;;6.20;5.65;;;;;;;;;;3583220;40;20033;-59
2021/08/01 02:07:35;;;;;;;7.68;4.80;;;;;;;;;;3585761;40;20387;-58
2021/08/01 02:10:07;;;;;;;8.10;5.18;;;;;;;;;;3586188;40;20029;-59
2021/08/01 02:12:36;;;;;;;5.20;4.70;;;;;;;;;;3586220;40;20055;-60
2021/08/01 02:15:05;;;;;;;5.50;4.97;;;;;;;;;;3586436;40;20032;-60
2021/08/01 02:17:41;;;;;;;5.03;4.18;;;;;;;;;;3586510;40;20063;-60
2021/08/01 02:20:08;;;;;;;6.05;3.95;;;;;;;;;;3586492;40;20032;-60
2021/08/01 02:22:34;;;;;;;7.60;3.75;;;;;;;;;;3585209;40;20586;-60
2021/08/01 02:25:01;;;;;;;6.35;4.65;;;;;;;;;;3586424;40;20084;-61
2021/08/01 02:27:30;;;;;;;5.05;3.33;;;;;;;;;;3586551;40;20129;-61
2021/08/01 02:29:57;;;;;;;5.63;3.33;;;;;;;;;;3586772;40;20084;-61
2021/08/01 02:32:23;;;;;;;9.23;4.25;;;;;;;;;;3587056;40;20311;-61
2021/08/01 02:34:48;;;;;;;6.03;4.15;;;;;;;;;;3586991;40;20082;-61
2021/08/01 02:37:15;;;;;;;5.45;4.75;;;;;;;;;;3586333;40;20056;-60
2021/08/01 02:39:42;;;;;;;6.82;4.10;;;;;;;;;;3585143;40;20581;-60
2021/08/01 02:42:10;;;;;;;9.65;5.03;;;;;;;;;;3584376;40;20117;-61
2021/08/01 02:44:37;;;;;;;5.32;3.45;;;;;;;;;;3584916;40;20087;-61
2021/08/01 02:47:06;;;;;;;4.82;3.67;;;;;;;;;;3585014;40;20042;-61
2021/08/01 02:49:36;;;;;;;5.18;3.33;;;;;;;;;;3586055;40;20418;-59
2021/08/01 02:52:03;;;;;;;7.43;3.13;;;;;;;;;;3585638;40;20082;-61
2021/08/01 02:54:31;;;;;;;4.60;3.45;;;;;;;;;;3586075;40;20130;-61
2021/08/01 02:57:00;;;;;;;4.28;3.17;;;;;;;;;;3584314;40;20519;-61
2021/08/01 02:59:27;;;;;;;5.05;3.55;;;;;;;;;;3585495;40;20032;-60
2021/08/01 03:01:55;;;;;;;7.28;5.20;;;;;;;;;;3586716;40;20072;-59
2021/08/01 03:04:30;;;;;;;5.35;3.85;;;;;;;;;;3586493;40;20064;-60
2021/08/01 03:06:57;;;;;;;10.70;7.72;;;;;;;;;;3585118;40;20040;-60
2021/08/01 03:09:22;;;;;;;6.45;5.85;;;;;;;;;;3586814;40;20072;-59
2021/08/01 03:11:48;;;;;;;6.15;5.45;;;;;;;;;;3586839;40;20092;-59
2021/08/01 03:14:14;;;;;;;5.88;5.28;;;;;;;;;;3586104;40;20291;-59
2021/08/01 03:16:39;;;;;;;8.23;7.43;;;;;;;;;;3586151;40;20066;-59
2021/08/01 03:19:05;;;;;;;10.40;8.25;;;;;;;;;;3586314;40;20028;-59
2021/08/01 03:21:30;;;;;;;12.48;9.38;;;;;;;;;;3586454;40;20036;-59
2021/08/01 03:23:56;;;;;;;14.65;10.77;;;;;;;;;;3586568;40;20029;-60
2021/08/01 03:26:21;;;;;;;9.43;6.03;;;;;;;;;;3586225;40;20102;-60
2021/08/01 03:28:46;;;;;;;9.10;5.78;;;;;;;;;;3586567;40;20031;-59
2021/08/01 03:31:12;;;;;;;6.63;5.85;;;;;;;;;;3584871;40;20029;-59
2021/08/01 03:33:38;;;;;;;7.82;7.18;;;;;;;;;;3585650;40;20453;-60
2021/08/01 03:36:03;;;;;;;7.60;6.68;;;;;;;;;;3585802;40;20385;-60
2021/08/01 03:38:29;;;;;;;7.88;7.18;;;;;;;;;;3586379;40;20034;-60
2021/08/01 03:40:54;;;;;;;10.13;9.27;;;;;;;;;;3585763;40;20129;-60
2021/08/01 03:43:20;;;;;;;8.15;7.47;;;;;;;;;;3585412;40;20032;-60
2021/08/01 03:45:45;;;;;;;11.45;10.55;;;;;;;;;;3586601;40;20052;-60
2021/08/01 03:48:10;;;;;;;12.23;11.35;;;;;;;;;;3586382;40;20052;-60
2021/08/01 03:50:36;;;;;;;16.40;15.23;;;;;;;;;;3585518;40;20067;-60
2021/08/01 03:53:01;;;;;;;16.33;15.27;;;;;;;;;;3586301;40;20036;-60
2021/08/01 03:55:26;;;;;;;14.35;13.35;;;;;;;;;;3586154;40;20052;-60
2021/08/01 03:57:52;;;;;;;16.55;15.35;;;;;;;;;;3586193;40;20055;-60
2021/08/01 04:00:17;;;;;;;15.27;14.23;;;;;;;;;;3585033;40;20364;-60
2021/08/01 04:02:43;;;;;;;15.20;14.20;;;;;;;;;;3584903;40;20045;-60
2021/08/01 04:05:09;;;;;;;15.20;13.43;;;;;;;;;;3584967;40;20438;-60
2021/08/01 04:07:34;;;;;;;14.63;13.57;;;;;;;;;;3585244;40;20094;-59
2021/08/01 04:10:00;;;;;;;13.50;12.30;;;;;;;;;;3585237;40;20028;-60
2021/08/01 04:12:25;;;;;;;12.65;11.75;;;;;;;;;;3585229;40;20166;-60
2021/08/01 04:14:50;;;;;;;13.77;12.70;;;;;;;;;;3585687;40;20125;-60
2021/08/01 04:17:19;;;;;;;14.10;12.95;;;;;;;;;;3586337;40;20441;-60
2021/08/01 04:19:46;;;;;;;12.13;10.93;;;;;;;;;;3584921;40;20048;-60
2021/08/01 04:22:13;;;;;;;11.98;11.07;;;;;;;;;;3585038;40;20113;-60
2021/08/01 04:24:39;;;;;;;9.73;8.82;;;;;;;;;;3585463;40;20368;-60
2021/08/01 04:27:04;;;;;;;10.98;10.10;;;;;;;;;;3588808;40;20041;-60
2021/08/01 04:29:30;;;;;;;8.27;7.57;;;;;;;;;;3587424;40;20059;-60
2021/08/01 04:31:55;;;;;;;8.05;6.95;;;;;;;;;;3587230;40;20048;-60
2021/08/01 04:34:20;;;;;;;10.43;8.85;;;;;;;;;;3587508;40;20059;-60
2021/08/01 04:36:46;;;;;;;9.10;8.38;;;;;;;;;;3586939;40;20045;-60
2021/08/01 04:39:11;;;;;;;10.40;9.63;;;;;;;;;;3587267;40;20071;-60
2021/08/01 04:41:37;;;;;;;8.75;7.65;;;;;;;;;;3586187;40;20052;-60
2021/08/01 04:44:02;;;;;;;6.63;5.80;;;;;;;;;;3588009;40;20036;-60
2021/08/01 04:46:27;;;;;;;6.90;6.18;;;;;;;;;;3587414;40;20041;-60
2021/08/01 04:48:53;;;;;;;6.88;6.28;;;;;;;;;;3587628;40;20259;-60
2021/08/01 04:51:18;;;;;;;7.88;6.90;;;;;;;;;;3587395;40;20036;-60
2021/08/01 04:53:43;;;;;;;6.57;5.97;;;;;;;;;;3587734;40;20498;-60
2021/08/01 04:56:10;;;;;;;7.47;6.88;;;;;;;;;;3587610;40;20330;-60
2021/08/01 04:58:36;;;;;;;6.40;5.80;;;;;;;;;;3587369;40;20090;-59
2021/08/01 05:01:02;;;;;;;7.90;6.53;;;;;;;;;;3587061;40;20041;-59
2021/08/01 05:03:27;;;;;;;8.70;7.90;;;;;;;;;;3586830;40;20084;-59
2021/08/01 05:05:52;;;;;;;7.40;6.70;;;;;;;;;;3587746;40;20028;-59
2021/08/01 05:08:18;;;;;;;9.80;7.65;;;;;;;;;;3585465;40;20044;-60
2021/08/01 05:10:43;;;;;;;7.40;6.65;;;;;;;;;;3587064;40;20396;-59
2021/08/01 05:13:09;;;;;;;8.27;6.88;;;;;;;;;;3586404;40;20039;-59
2021/08/01 05:15:34;;;;;;;6.60;5.72;;;;;;;;;;3586940;40;20028;-60
2021/08/01 05:18:02;;;;;;;8.98;6.43;;;;;;;;;;3585923;40;20041;-60
2021/08/01 05:20:27;;;;;;;5.53;4.95;;;;;;;;;;3587153;40;20344;-59
2021/08/01 05:22:52;;;;;;;6.07;4.60;;;;;;;;;;3587711;40;20064;-60
2021/08/01 05:25:18;;;;;;;6.15;4.43;;;;;;;;;;3588968;40;20425;-60
2021/08/01 05:27:43;;;;;;;6.05;4.93;;;;;;;;;;3587448;40;20123;-59
2021/08/01 05:30:09;;;;;;;5.18;4.38;;;;;;;;;;3587250;40;20077;-59
2021/08/01 05:32:34;;;;;;;5.05;3.33;;;;;;;;;;3585993;40;20045;-59
2021/08/01 05:35:00;;;;;;;6.78;5.97;;;;;;;;;;3586911;40;20029;-59
2021/08/01 05:37:26;;;;;;;6.20;5.60;;;;;;;;;;3586983;40;20036;-59
2021/08/01 05:39:51;;;;;;;6.07;5.25;;;;;;;;;;3586133;40;20090;-59
2021/08/01 05:42:18;;;;;;;4.97;3.70;;;;;;;;;;3587098;40;20032;-60
2021/08/01 05:44:44;;;;;;;5.15;3.17;;;;;;;;;;3587146;40;20028;-59
2021/08/01 05:47:09;;;;;;;6.45;5.85;;;;;;;;;;3587290;40;20032;-59
2021/08/01 05:49:35;;;;;;;5.70;4.93;;;;;;;;;;3586405;40;20468;-59
2021/08/01 05:52:01;;;;;;;5.38;4.10;;;;;;;;;;3586568;40;20052;-59
2021/08/01 05:54:26;;;;;;;6.72;4.38;;;;;;;;;;3586621;40;20044;-59
2021/08/01 05:56:51;;;;;;;4.88;3.55;;;;;;;;;;3587084;40;20280;-59
2021/08/01 05:59:17;;;;;;;5.68;5.13;;;;;;;;;;3587052;40;20131;-59
2021/08/01 06:01:42;;;;;;;5.85;5.13;;;;;;;;;;3587151;40;20045;-60
2021/08/01 06:04:08;;;;;;;5.28;4.78;;;;;;;;;;3587129;40;20757;-59
2021/08/01 06:06:33;;;;;;;5.72;4.78;;;;;;;;;;3586316;40;20051;-59
2021/08/01 06:08:58;;;;;;;5.88;5.28;;;;;;;;;;3587163;40;20044;-59
2021/08/01 06:11:24;;;;;;;5.65;5.15;;;;;;;;;;3586402;40;20407;-60
2021/08/01 06:13:49;;;;;;;6.60;5.65;;;;;;;;;;3585099;40;20037;-60
2021/08/01 06:16:15;;;;;;;7.05;5.28;;;;;;;;;;3585107;40;20037;-60
2021/08/01 06:18:42;;;;;;;4.25;3.83;;;;;;;;;;3585281;40;20262;-60
2021/08/01 06:21:16;;;;;;;4.35;3.60;;;;;;;;;;3583684;40;20571;-60
2021/08/01 06:23:43;;;;;;;5.05;3.95;;;;;;;;;;3586645;40;20044;-60
2021/08/01 06:26:10;;;;;;;5.47;3.15;;;;;;;;;;3586469;40;20420;-59
2021/08/01 06:28:35;;;;;;;5.05;3.13;;;;;;;;;;3586662;40;20044;-59
2021/08/01 06:31:02;;;;;;;3.35;2.42;;;;;;;;;;3585386;40;20049;-59
2021/08/01 06:33:28;;;;;;;4.50;3.33;;;;;;;;;;3585297;40;20025;-59
2021/08/01 06:35:54;;;;;;;4.07;2.78;;;;;;;;;;3585358;40;20043;-59
2021/08/01 06:38:19;;;;;;;4.15;2.65;;;;;;;;;;3584714;40;20037;-59
2021/08/01 06:40:45;;;;;;;3.95;3.00;;;;;;;;;;3585921;40;20415;-59
2021/08/01 06:43:10;;;;;;;4.22;3.10;;;;;;;;;;3585844;40;20056;-59
2021/08/01 06:45:35;;;;;;;4.45;2.72;;;;;;;;;;3585736;40;20044;-59
2021/08/01 06:48:01;;;;;;;4.93;3.15;;;;;;;;;;3585768;40;20043;-60
2021/08/01 06:50:26;;;;;;;4.22;3.67;;;;;;;;;;3584394;40;20040;-59
2021/08/01 06:52:51;;;;;;;4.38;2.92;;;;;;;;;;3584907;40;20076;-59
2021/08/01 06:55:17;;;;;;;5.30;3.38;;;;;;;;;;3585267;40;20039;-59
2021/08/01 06:57:42;;;;;;;4.53;2.72;;;;;;;;;;3584848;40;20424;-59
2021/08/01 07:00:08;;;;;;;5.45;3.28;;;;;;;;;;3585792;40;20039;-59
2021/08/01 07:02:33;;;;;;;4.20;3.38;;;;;;;;;;3586076;40;20505;-59
2021/08/01 07:04:59;;;;;;;3.80;2.97;;;;;;;;;;3585913;40;20029;-60
2021/08/01 07:07:25;;;;;;;4.80;3.03;;;;;;;;;;3586310;40;20032;-60
2021/08/01 07:09:50;;;;;;;4.85;3.55;;;;;;;;;;3586760;40;20245;-59
2021/08/01 07:12:16;;;;;;;4.15;3.42;;;;;;;;;;3586649;40;20039;-59
2021/08/01 07:14:43;;;;;;;5.68;3.72;;;;;;;;;;3585594;40;20364;-59
2021/08/01 07:17:08;;;;;;;5.50;3.22;;;;;;;;;;3584818;40;20129;-59
2021/08/01 07:19:34;;;;;;;9.52;4.07;;;;;;;;;;3586094;40;20040;-59
2021/08/01 07:21:59;;;;;;;5.65;3.92;;;;;;;;;;3583874;40;20113;-59
2021/08/01 07:24:25;;;;;;;4.93;3.60;;;;;;;;;;3585193;40;20048;-59
2021/08/01 07:26:52;;;;;;;5.88;4.10;;;;;;;;;;3584744;40;20044;-59
2021/08/01 07:29:18;;;;;;;4.30;3.70;;;;;;;;;;3585945;40;20025;-59
2021/08/01 07:31:44;;;;;;;4.32;3.15;;;;;;;;;;3584931;40;20028;-59
2021/08/01 07:34:09;;;;;;;4.90;3.65;;;;;;;;;;3584463;40;20046;-59
2021/08/01 07:36:35;;;;;;;4.55;3.72;;;;;;;;;;3583598;40;20069;-59
2021/08/01 07:39:00;;;;;;;5.43;2.90;;;;;;;;;;3585276;40;20063;-59
2021/08/01 07:41:25;;;;;;;6.57;3.10;;;;;;;;;;3585944;40;20047;-59
2021/08/01 07:43:51;;;;;;;4.45;3.33;;;;;;;;;;3585916;40;20050;-59
2021/08/01 07:46:18;;;;;;;4.22;2.67;;;;;;;;;;3586670;40;20038;-59
2021/08/01 07:48:44;;;;;;;4.03;2.55;;;;;;;;;;3585082;40;20380;-59
2021/08/01 07:51:09;;;;;;;4.60;3.05;;;;;;;;;;3586183;40;20044;-59
2021/08/01 07:53:34;;;;;;;3.80;2.38;;;;;;;;;;3585321;40;20459;-59
2021/08/01 07:56:00;;;;;;;7.05;2.60;;;;;;;;;;3585493;40;20052;-59
2021/08/01 07:58:25;;;;;;;4.60;2.40;;;;;;;;;;3585870;40;20048;-59
2021/08/01 08:00:51;;;;;;;3.60;2.33;;;;;;;;;;3585839;40;20086;-59
2021/08/01 08:03:16;;;;;;;3.50;2.10;;;;;;;;;;3586609;40;20832;-59
2021/08/01 08:05:42;;;;;;;4.03;2.63;;;;;;;;;;3585356;40;20045;-59
2021/08/01 08:08:07;;;;;;;3.70;2.33;;;;;;;;;;3585097;40;20380;-60
2021/08/01 08:10:32;;;;;;;3.05;1.98;;;;;;;;;;3585528;40;20770;-59
2021/08/01 08:12:58;;;;;;;5.13;2.50;;;;;;;;;;3581878;40;20046;-59
2021/08/01 08:15:23;;;;;;;7.50;2.33;;;;;;;;;;3585067;40;20037;-60
2021/08/01 08:17:48;;;;;;;5.55;2.05;;;;;;;;;;3583961;40;20037;-60
2021/08/01 08:20:14;;;;;;;4.20;2.28;;;;;;;;;;3585187;40;20036;-59
2021/08/01 08:22:39;;;;;;;5.28;2.47;;;;;;;;;;3585209;40;20118;-59
2021/08/01 08:25:05;;;;;;;6.63;2.47;;;;;;;;;;3585725;40;20037;-59
2021/08/01 08:27:31;;;;;;;5.03;2.10;;;;;;;;;;3585291;40;20161;-59
2021/08/01 08:29:57;;;;;;;5.72;2.30;;;;;;;;;;3586120;40;20372;-60
2021/08/01 08:32:22;;;;;;;4.40;1.92;;;;;;;;;;3585766;40;20252;-60
2021/08/01 08:34:48;;;;;;;2.70;1.65;;;;;;;;;;3584351;40;20025;-59
2021/08/01 08:37:13;;;;;;;3.72;2.00;;;;;;;;;;3584412;40;20033;-59
2021/08/01 08:39:39;;;;;;;4.60;2.00;;;;;;;;;;3584622;40;20579;-59
2021/08/01 08:42:04;;;;;;;13.05;2.70;;;;;;;;;;3585253;40;20149;-59
2021/08/01 08:44:30;;;;;;;3.75;1.80;;;;;;;;;;3584988;40;20041;-59
2021/08/01 08:46:57;;;;;;;3.72;2.03;;;;;;;;;;3582690;40;20056;-59
2021/08/01 08:49:23;;;;;;;3.03;1.58;;;;;;;;;;3584366;40;20041;-59
2021/08/01 08:51:51;;;;;;;3.38;1.90;;;;;;;;;;3585649;40;20102;-59
2021/08/01 08:54:20;;;;;;;3.95;2.33;;;;;;;;;;3585322;40;20064;-59
2021/08/01 08:56:47;;;;;;;3.75;2.20;;;;;;;;;;3585463;40;20064;-59
2021/08/01 08:59:18;;;;;;;3.55;2.10;;;;;;;;;;3586106;40;20146;-59
2021/08/01 09:01:43;;;;;;;4.80;2.90;;;;;;;;;;3585846;40;20052;-59
2021/08/01 09:04:10;;;;;;;5.32;3.30;;;;;;;;;;3585316;40;20040;-59
2021/08/01 09:06:36;;;;;;;4.45;2.85;;;;;;;;;;3585896;40;20134;-59
2021/08/01 09:09:02;;;;;;;5.07;3.00;;;;;;;;;;3585702;40;20312;-60
2021/08/01 09:11:27;;;;;;;5.10;2.58;;;;;;;;;;3585358;40;20395;-59
2021/08/01 09:13:55;;;;;;;4.13;2.25;;;;;;;;;;3587629;40;20090;-59
2021/08/01 09:16:39;;;;;;;4.53;2.78;;;;;;;;;;3586218;40;20040;-59
2021/08/01 09:19:27;;;;;;;5.03;2.53;;;;;;;;;;3586576;40;20057;-59
2021/08/01 09:21:53;;;;;;;3.65;2.17;;;;;;;;;;3584079;40;20043;-59
2021/08/01 09:24:19;;;;;;;5.10;2.75;;;;;;;;;;3585766;40;20032;-60
2021/08/01 09:26:46;;;;;;;5.85;2.75;;;;;;;;;;3587149;40;20056;-59
2021/08/01 09:29:14;;;;;;;4.47;2.72;;;;;;;;;;3587070;40;20044;-59
2021/08/01 09:31:39;;;;;;;4.30;1.95;;;;;;;;;;3587232;40;20083;-59
2021/08/01 09:34:25;;;;;;;7.22;2.70;;;;;;;;;;3586593;40;20036;-59
2021/08/01 09:37:04;;;;;;;4.43;2.25;;;;;;;;;;3586432;40;20110;-59
2021/08/01 09:39:41;;;;;;;4.13;2.67;;;;;;;;;;3586594;40;20041;-59
2021/08/01 09:42:07;;;;;;;3.92;2.70;;;;;;;;;;3586331;40;20056;-60
2021/08/01 09:44:37;;;;;;;5.50;2.70;;;;;;;;;;3586724;40;20046;-59
2021/08/01 09:47:02;;;;;;;2.90;1.65;;;;;;;;;;3584713;40;20052;-59
2021/08/01 09:49:29;;;;;;;2.90;1.90;;;;;;;;;;3586808;40;20075;-59
2021/08/01 09:52:22;;;;;;;5.32;2.20;;;;;;;;;;3587040;40;20032;-59
2021/08/01 09:54:48;;;;;;;4.15;2.25;;;;;;;;;;3584092;40;20093;-59
2021/08/01 09:57:21;;;;;;;2.85;2.20;;;;;;;;;;3585977;40;20051;-59
2021/08/01 10:00:03;;;;;;;3.75;2.25;;;;;;;;;;3586554;40;20032;-59
2021/08/01 10:02:38;;;;;;;2.95;2.08;;;;;;;;;;3585677;40;20040;-59
2021/08/01 10:05:20;;;;;;;3.33;1.80;;;;;;;;;;3585667;40;21149;-59
2021/08/01 10:07:49;;;;;;;3.28;2.38;;;;;;;;;;3585358;40;20048;-59
2021/08/01 10:10:18;;;;;;;4.93;2.10;;;;;;;;;;3583962;40;20052;-59
2021/08/01 10:12:45;;;;;;;8.45;2.53;;;;;;;;;;3582383;40;20024;-59
2021/08/01 10:15:11;;;;;;;3.55;2.50;;;;;;;;;;3583441;40;20032;-59
2021/08/01 10:17:38;;;;;;;6.45;2.00;;;;;;;;;;3585498;40;20036;-59
2021/08/01 10:20:05;;;;;;;3.78;2.13;;;;;;;;;;3582769;40;20036;-59
2021/08/01 10:22:32;;;;;;;3.67;2.70;;;;;;;;;;3584342;40;20051;-58
2021/08/01 10:25:01;;;;;;;3.58;2.28;;;;;;;;;;3583755;40;20122;-59
2021/08/01 10:27:27;;;;;;;2.88;2.10;;;;;;;;;;3584111;40;20331;-59
2021/08/01 10:29:55;;;;;;;3.00;1.90;;;;;;;;;;3584762;40;20036;-59
2021/08/01 10:32:24;;;;;;;3.78;2.22;;;;;;;;;;3586114;40;20040;-59
2021/08/01 10:35:06;;;;;;;3.53;2.22;;;;;;;;;;3585094;40;20090;-60
2021/08/01 10:37:44;;;;;;;3.85;2.05;;;;;;;;;;3585589;40;20050;-59
2021/08/01 10:40:11;;;;;;;3.13;2.00;;;;;;;;;;3585994;40;20039;-59
2021/08/01 10:42:40;;;;;;;4.50;1.85;;;;;;;;;;3586428;40;20349;-59
2021/08/01 10:45:06;;;;;;;4.75;2.00;;;;;;;;;;3584277;40;20027;-59
2021/08/01 10:47:34;;;;;;;3.22;1.73;;;;;;;;;;3585033;40;20311;-58
2021/08/01 10:50:01;;;;;;;3.25;1.88;;;;;;;;;;3585832;40;20052;-60
2021/08/01 10:52:31;;;;;;;2.80;1.67;;;;;;;;;;3585467;40;20129;-59
2021/08/01 10:54:58;;;;;;;2.83;1.52;;;;;;;;;;3585989;40;20080;-59
2021/08/01 10:57:25;;;;;;;4.30;2.15;;;;;;;;;;3585494;40;20076;-59
2021/08/01 10:59:50;;;;;;;5.53;2.10;;;;;;;;;;3585853;40;20040;-59
2021/08/01 11:02:24;;;;;;;2.63;1.30;;;;;;;;;;3586985;40;20393;-59
2021/08/01 11:04:51;;;;;;;7.15;2.97;;;;;;;;;;3586058;40;20121;-59
2021/08/01 11:07:25;;;;;;;3.38;1.88;;;;;;;;;;3586830;40;20052;-59
2021/08/01 11:10:06;;;;;;;4.85;2.58;;;;;;;;;;3586460;40;20598;-59
2021/08/01 11:12:32;;;;;;;2.88;1.50;;;;;;;;;;3585965;40;20036;-59
2021/08/01 11:14:59;;;;;;;2.95;1.85;;;;;;;;;;3586203;40;20094;-59
2021/08/01 11:17:43;;;;;;;4.35;1.63;;;;;;;;;;3586633;40;20040;-59
2021/08/01 11:20:23;;;;;;;3.22;2.10;;;;;;;;;;3586166;40;20052;-59
2021/08/01 11:22:52;;;;;;;;;;;;;;;;;;3586968;40;20054;-59
2021/08/01 11:25:27;;;;;;;2.95;1.60;;;;;;;;;;3586000;40;20405;-59
2021/08/01 11:28:12;;;;;;;3.08;1.50;;;;;;;;;;3586538;40;20070;-59
2021/08/01 11:30:58;;;;;;;2.80;1.50;;;;;;;;;;3584692;40;20047;-59
2021/08/01 11:33:40;;;;;;;2.85;1.40;;;;;;;;;;3586488;40;20049;-59
2021/08/01 11:36:11;;;;;;;3.03;1.50;;;;;;;;;;3585675;40;20040;-59
2021/08/01 11:38:59;;;;;;;3.55;1.85;;;;;;;;;;3586247;40;20368;-59
2021/08/01 11:41:27;;;;;;;2.97;1.30;;;;;;;;;;3586243;40;20077;-59
2021/08/01 11:43:59;;;;;;;3.25;1.60;;;;;;;;;;3586563;40;20076;-59
2021/08/01 11:46:26;;;;;;;3.58;1.80;;;;;;;;;;3586615;40;20044;-59
2021/08/01 11:49:02;;;;;;;4.13;1.33;;;;;;;;;;3586266;40;20060;-59
2021/08/01 11:51:32;;;;;;;2.97;1.50;;;;;;;;;;3586593;40;20045;-58
2021/08/01 11:53:58;;;;;;;5.35;1.63;;;;;;;;;;3585352;40;20610;-58
2021/08/01 11:56:24;;;;;;;2.83;1.65;;;;;;;;;;3585441;40;20036;-58
2021/08/01 11:58:55;;;;;;;5.55;1.70;;;;;;;;;;3585975;40;20402;-58
2021/08/01 12:01:22;;;;;;;3.10;1.70;;;;;;;;;;3584422;40;20037;-58
2021/08/01 12:03:51;;;;;;;2.97;1.67;;;;;;;;;;3584463;40;20584;-58
2021/08/01 12:06:35;;;;;;;4.00;2.00;;;;;;;;;;3585583;40;20060;-58
2021/08/01 12:09:17;;;;;;;3.55;1.50;;;;;;;;;;3586203;40;20161;-58
2021/08/01 12:11:44;;;;;;;3.08;1.75;;;;;;;;;;3584815;40;20084;-58
2021/08/01 12:14:10;;;;;;;4.13;1.98;;;;;;;;;;3586404;40;20361;-58
2021/08/01 12:16:36;;;;;;;3.17;1.65;;;;;;;;;;3585621;40;20053;-58
2021/08/01 12:19:18;;;;;;;5.63;1.88;;;;;;;;;;3583608;40;20060;-59
2021/08/01 12:21:45;;;;;;;3.13;1.77;;;;;;;;;;3585418;40;20036;-59
2021/08/01 12:24:31;;;;;;;3.50;1.70;;;;;;;;;;3585872;40;20059;-58
2021/08/01 12:27:10;;;;;;;3.45;1.70;;;;;;;;;;3586025;40;20045;-59
2021/08/01 12:29:42;;;;;;;3.13;1.83;;;;;;;;;;3585741;40;20657;-59
2021/08/01 12:32:31;;;;;;;3.25;1.88;;;;;;;;;;3585710;40;20045;-58
2021/08/01 12:35:19;;;;;;;3.83;1.77;;;;;;;;;;3585657;40;20099;-58
2021/08/01 12:38:01;;;;;;;4.13;1.85;;;;;;;;;;3585675;40;20076;-58
2021/08/01 12:40:28;;;;;;;3.58;1.85;;;;;;;;;;3585343;40;20134;-58
2021/08/01 12:43:02;;;;;;;2.67;1.40;;;;;;;;;;3585880;40;20033;-59
2021/08/01 12:45:33;;;;;;;2.90;1.45;;;;;;;;;;3585908;40;20387;-59
2021/08/01 12:47:58;;;;;;;3.65;1.80;;;;;;;;;;3586222;40;20053;-58
2021/08/01 12:50:24;;;;;;;3.03;1.85;;;;;;;;;;3583829;40;20032;-58
2021/08/01 12:52:50;;;;;;;3.65;1.80;;;;;;;;;;3587465;40;20033;-58
2021/08/01 12:55:16;;;;;;;3.42;1.55;;;;;;;;;;3587415;40;20032;-58
2021/08/01 12:58:01;;;;;;;2.90;1.40;;;;;;;;;;3587087;40;20366;-58
2021/08/01 13:00:30;;;;;;;3.10;1.60;;;;;;;;;;3586865;40;20044;-58
2021/08/01 13:03:01;;;;;;;3.28;1.60;;;;;;;;;;3587403;40;20079;-57
2021/08/01 13:05:29;;;;;;;5.07;2.35;;;;;;;;;;3585030;40;20048;-57
2021/08/01 13:07:56;;;;;;;3.17;1.65;;;;;;;;;;3585888;40;20047;-58
2021/08/01 13:10:22;;;;;;;2.88;1.50;;;;;;;;;;3587418;40;20056;-58
2021/08/01 13:13:10;;;;;;;2.88;1.58;;;;;;;;;;3587133;40;20079;-58
2021/08/01 13:15:57;;;;;;;4.35;1.70;;;;;;;;;;3585685;40;20051;-58
2021/08/01 13:18:31;;;;;;;2.97;1.58;;;;;;;;;;3587160;40;20036;-58
2021/08/01 13:21:15;;;;;;;2.53;1.40;;;;;;;;;;3586660;40;20052;-58
2021/08/01 13:23:42;;;;;;;2.95;1.25;;;;;;;;;;3587168;40;20245;-58
2021/08/01 13:26:37;;;;;;;3.63;1.40;;;;;;;;;;3587227;40;20518;-58
2021/08/01 13:29:05;;;;;;;3.10;1.70;;;;;;;;;;3582828;40;20434;-59
2021/08/01 13:31:36;;;;;;;2.92;1.60;;;;;;;;;;3586402;40;20063;-58
2021/08/01 13:34:03;;;;;;;4.60;1.85;;;;;;;;;;3586049;40;20396;-58
2021/08/01 13:36:55;;;;;;;2.85;1.50;;;;;;;;;;3586119;40;20064;-58
2021/08/01 13:39:27;;;;;;;4.93;1.85;;;;;;;;;;3586854;40;20368;-59
2021/08/01 13:42:05;;;;;;;2.80;1.42;;;;;;;;;;3585787;40;20028;-59
2021/08/01 13:45:00;;;;;;;3.08;1.60;;;;;;;;;;3586864;40;20039;-59
2021/08/01 13:47:27;;;;;;;2.55;1.27;;;;;;;;;;3582463;40;20242;-58
2021/08/01 13:50:10;;;;;;;4.30;1.23;;;;;;;;;;3586252;40;20072;-59
2021/08/01 13:52:36;;;;;;;3.10;1.48;;;;;;;;;;3586480;40;20067;-59
2021/08/01 13:55:04;;;;;;;8.25;1.60;;;;;;;;;;3586464;40;20033;-58
2021/08/01 13:57:30;;;;;;;3.75;1.60;;;;;;;;;;3585578;40;20065;-59
2021/08/01 13:59:57;;;;;;;3.03;1.52;;;;;;;;;;3586147;40;20037;-59
2021/08/01 14:02:24;;;;;;;5.32;1.45;;;;;;;;;;3586554;40;20045;-59
2021/08/01 14:04:50;;;;;;;3.90;1.40;;;;;;;;;;3587179;40;20068;-58
2021/08/01 14:07:16;;;;;;;1.98;1.15;;;;;;;;;;3586838;40;20039;-59
2021/08/01 14:09:42;;;;;;;1.88;1.10;;;;;;;;;;3587097;40;20045;-59
2021/08/01 14:12:07;;;;;;;1.85;1.23;;;;;;;;;;3587483;40;20150;-58
2021/08/01 14:14:33;;;;;;;2.95;1.58;;;;;;;;;;3586112;40;20534;-58
2021/08/01 14:16:59;;;;;;;2.03;1.20;;;;;;;;;;3585694;40;20377;-59
2021/08/01 14:19:25;;;;;;;1.83;1.10;;;;;;;;;;3585455;40;20141;-58
2021/08/01 14:21:50;;;;;;;2.53;1.35;;;;;;;;;;3585935;40;20048;-58
2021/08/01 14:24:16;;;;;;;2.40;1.40;;;;;;;;;;3586933;40;20048;-59
2021/08/01 14:26:45;;;;;;;2.40;1.35;;;;;;;;;;3585778;40;20060;-59
2021/08/01 14:29:13;;;;;;;3.60;1.40;;;;;;;;;;3587047;40;20085;-58
2021/08/01 14:31:39;;;;;;;2.50;1.42;;;;;;;;;;3586964;40;20118;-58
2021/08/01 14:34:06;;;;;;;1.88;1.13;;;;;;;;;;3586730;40;20041;-58
2021/08/01 14:36:35;;;;;;;3.95;1.85;;;;;;;;;;3585600;40;20043;-59
2021/08/01 14:39:07;;;;;;;2.88;1.80;;;;;;;;;;3586048;40;20045;-58
2021/08/01 14:41:37;;;;;;;3.15;1.50;;;;;;;;;;3585394;40;20028;-59
2021/08/01 14:44:03;;;;;;;1.95;1.08;;;;;;;;;;3587261;40;20113;-59
2021/08/01 14:46:30;;;;;;;1.98;1.20;;;;;;;;;;3586133;40;20064;-59
2021/08/01 14:49:16;;;;;;;2.80;1.30;;;;;;;;;;3585809;40;20040;-59